AGGH/HIR METAR and TAF weather

Enter ICAO airport designator
Station Type Date Time Source
AGGH METAR 2019/06/26 22:00 UTC NOAA

AGGH 262200Z 00000KT 9999 FEW014 FEW015CB 29/25 Q1010


Station Type Date Time Source
AGGH Decoded METAR 2019/06/26 22:00 UTC NOAA

Honiara / Henderson, Solomon Islands (AGGH) 09-25S 160-03E 9M
Jun 26, 2019 - 06:00 PM EDT / 2019.06.26 2200 UTC
Wind: Calm:0
Visibility: greater than 7 mile(s):0
Sky conditions: mostly clear
Weather: Cumulonimbus clouds observed
Temperature: 84 F (29 C)
Dew Point: 77 F (25 C)
Relative Humidity: 79%
Pressure (altimeter): 29.83 in. Hg (1010 hPa)
ob: AGGH 262200Z 00000KT 9999 FEW014 FEW015CB 29/25 Q1010
cycle: 22

Station Type Date Time Source
AGGH TAF 2019/06/26 12:19 UTC NOAA

TAF AGGH 261110Z 2612/2712 VRB03KT 9999 FEW016 T 25 24 23 26 Q 1011 1009 1008 1010

Example: see airport list